Tar Heel, NC (28392)

4:58 PM EDT on March 30, 2015 (GMT -0400)
Cape Owen Manor | | Change Station
CLOSE
Current Station
Personal Weather Station
Location: Elizabethtown, NC
Elevation: 151 ft
Nearby Weather Stations
Active Advisory: Special Statement

Elev 151 ft 34.69 °N, 78.69 °W | Updated 1 minute ago

Clear
Clear
65.3 °F
Feels Like 65.3 °F
N
3.8
Wind Variable Wind from West

Today
High -- | Low -- °F
--% Chance of Precip.
Yesterday
High -- | Low -- °F
Precip. -- in
7:05 AM 7:34 PM
Waxing Gibbous, 82% visible
Pressure 29.99 in
Visibility 10.0 miles
Clouds Scattered Clouds 4000 ft
Dew Point 47 °F
Humidity 51%
Rainfall 0.00 in
Snow Depth Not available.
UV 3 out of 12
Pollen 10.30 out of 12
Air Quality Not available.
Flu Activity Not available.
METAR KLBT 302054Z AUTO 25009G20KT 10SM SCT040 18/09 A2998 RMK AO2 SLP153 T01830089 56022

More Conditions Fewer Conditions

Pressure 29.99 in
Visibility 10.0 miles
Clouds Scattered Clouds 4000 ft
Dew Point 47 °F
Humidity 51%
Rainfall 0.00 in
Snow Depth Not available.
UV 3 out of 12
Pollen 10.30 out of 12
Air Quality Not available.
Flu Activity Not available.
METAR KLBT 302054Z AUTO 25009G20KT 10SM SCT040 18/09 A2998 RMK AO2 SLP153 T01830089 56022

More Conditions Fewer Conditions

10-Day Weather Forecast

Almanac

Astronomy

Mar. 30, 2015 Rise Set
Actual Time
Civil Twilight
Nautical Twilight
Astronomical Twilight
Moon
Length of Visible Light
Length of Day
Tomorrow will be .
, % of the Moon is Illuminated

Today's Extremes

State Highs State Lows

Community

WunderPhotos

Upload Photos

1,809,584 photos uploaded!

WunderBlogs® & News

Nearby

Air Quality

  Air Quality AQ Index Pollutant
Not available.

Snow Depth

Station Depth Elevation

Earthquake Activity

City Distance Mag. Time & Date
Minimum magnitude displayed is 2.5.

Coastal Water Temperatures

Place Temperature

Stations

Nearby Weather Stations

Station Location Temp. Windchill Dew Point Humidity Wind Precip. Elev Updated Type
                   
Special Statement
Statement as of 4:07 PM EDT on March 30, 2015

... Increased fire danger across Robeson Bladen and Pender
counties Tuesday afternoon...

Gusty west to southwest winds of 20 to 30 mph... along with the
relative humidity dropping to 25 to 30 percent... will lead to an
increased fire danger Tuesday afternoon. Conditions will improve
by Tuesday evening.

For forestry officials... please advise the appropriate fire crews
in the field of this Fire Danger Statement.

Stay tuned to all hazards NOAA Weather Radio for further details
or updates.


29